Eva, Tennessee
Current Conditions -  °F | °C
As of 6:15 PM on Monday 20 Oct 2014 (Local Time) from KPHT Reporting Station
Clear Clear  
Wind Chill: 61°   Ceiling: Unl
Heat Index: 61°   Visibility: 7mi
Dew Point: 52°   Wind: 5mph
Humidity: 72%   Direction: 230°SW
Pressure: 29.98"   Gusts: NA
Location:  36.06°N, 88°W
Report Text: KPHT 202315Z AUTO 23004KT 7SM CLR 16/11 A2998 RMK
Loading
Personal Weather Stations






























Interactive Weather Map
Tropical Storm Tracking
New forecast layout! Learn more

10-Day Weather Forecast

Advertisements
Track Severe Weather on mobile